createdAt,value
2023-04-14T00:01:16.278Z,8.70
2023-04-14T00:06:20.488Z,9.13
2023-04-14T00:11:23.284Z,8.93
2023-04-14T00:16:26.175Z,8.38
2023-04-14T00:21:31.668Z,7.97
2023-04-14T00:26:34.513Z,8.13
2023-04-14T00:31:37.448Z,8.60
2023-04-14T00:36:41.794Z,7.97
2023-04-14T00:41:44.690Z,8.77
2023-04-14T00:46:47.948Z,7.88
2023-04-14T00:51:52.749Z,10.35
2023-04-14T00:56:57.977Z,8.20
2023-04-14T01:02:01.953Z,8.25
2023-04-14T01:07:06.279Z,8.70
2023-04-14T01:12:23.059Z,8.68
2023-04-14T01:17:33.846Z,8.45
2023-04-14T01:22:48.867Z,7.78
2023-04-14T01:28:05.524Z,8.48
2023-04-14T01:33:14.155Z,9.15
2023-04-14T01:38:23.141Z,9.05
2023-04-14T01:43:31.803Z,9.27
2023-04-14T01:48:37.114Z,9.93
2023-04-14T01:53:44.807Z,9.80
2023-04-14T01:58:50.314Z,9.93
2023-04-14T02:03:54.927Z,9.95
2023-04-14T02:09:01.059Z,10.55
2023-04-14T02:14:04.802Z,9.93
2023-04-14T02:19:10.230Z,10.30
2023-04-14T02:24:13.246Z,10.43
2023-04-14T02:29:21.018Z,10.40
2023-04-14T02:34:29.401Z,10.18
2023-04-14T02:39:38.213Z,10.15
2023-04-14T02:44:46.860Z,10.05
2023-04-14T02:49:53.622Z,9.50
2023-04-14T02:55:00.217Z,9.35
2023-04-14T03:00:06.082Z,9.98
2023-04-14T03:05:18.928Z,11.45
2023-04-14T03:10:32.783Z,10.90
2023-04-14T03:15:37.949Z,11.60
2023-04-14T03:20:45.868Z,9.32
2023-04-14T03:25:50.032Z,10.20
2023-04-14T03:31:01.320Z,10.80
2023-04-14T03:36:13.535Z,13.38
2023-04-14T03:41:20.801Z,11.55
2023-04-14T03:46:26.377Z,11.35
2023-04-14T03:51:33.780Z,11.40
2023-04-14T03:56:38.298Z,10.88
2023-04-14T04:01:42.688Z,12.35
2023-04-14T04:06:49.512Z,11.48
2023-04-14T04:11:54.170Z,10.07
2023-04-14T04:17:01.475Z,10.80
2023-04-14T04:22:07.074Z,10.10
2023-04-14T04:27:24.226Z,9.88
2023-04-14T04:32:31.693Z,11.18
2023-04-14T04:37:36.580Z,10.90
2023-04-14T04:42:42.937Z,10.50
2023-04-14T04:47:48.759Z,10.75
2023-04-14T04:52:53.143Z,10.02
2023-04-14T04:57:55.975Z,10.00
2023-04-14T05:02:59.960Z,10.43
2023-04-14T05:08:04.388Z,11.65
2023-04-14T05:13:07.178Z,12.45
2023-04-14T05:18:10.037Z,10.98
2023-04-14T05:23:14.255Z,11.52
2023-04-14T05:28:17.158Z,12.13
2023-04-14T05:33:20.366Z,13.40
2023-04-14T05:38:24.689Z,11.90
2023-04-14T05:43:27.592Z,11.95
2023-04-14T05:48:31.019Z,12.73
2023-04-14T05:53:35.410Z,11.50
2023-04-14T05:58:38.288Z,12.38
2023-04-14T06:03:41.377Z,10.82
2023-04-14T06:08:45.747Z,2.47
2023-04-14T06:13:48.569Z,15.00
2023-04-14T06:18:51.419Z,10.73
2023-04-14T06:23:55.583Z,6.78
2023-04-14T06:28:59.403Z,8.50
2023-04-14T06:34:02.508Z,6.70
2023-04-14T06:39:06.990Z,7.40
2023-04-14T06:44:09.853Z,7.50
2023-04-14T06:49:13.019Z,7.70
2023-04-14T06:54:17.271Z,6.85
2023-04-14T06:59:21.136Z,6.32
2023-04-14T07:04:24.100Z,7.03
2023-04-14T07:09:29.234Z,7.03
2023-04-14T07:14:33.462Z,6.55
2023-04-14T07:19:36.260Z,7.55
2023-04-14T07:24:40.465Z,6.80
2023-04-14T07:29:43.413Z,7.20
2023-04-14T07:34:46.289Z,5.65
2023-04-14T07:39:50.454Z,6.43
2023-04-14T07:44:53.260Z,6.70
2023-04-14T07:49:58.264Z,6.57
2023-04-14T07:55:02.407Z,6.65
2023-04-14T08:00:05.873Z,7.57
2023-04-14T08:05:15.426Z,6.60
2023-04-14T08:10:19.788Z,6.68
2023-04-14T08:15:22.647Z,6.20
2023-04-14T08:20:25.439Z,8.23
2023-04-14T08:25:29.650Z,7.47
2023-04-14T08:30:32.415Z,6.47
2023-04-14T08:35:41.494Z,5.45
2023-04-14T08:40:49.284Z,8.13
2023-04-14T08:45:52.444Z,6.22
2023-04-14T08:51:02.314Z,6.20
2023-04-14T08:56:09.435Z,6.35
2023-04-14T09:01:12.774Z,7.72
2023-04-14T09:06:15.880Z,6.13
2023-04-14T09:11:20.211Z,6.13
2023-04-14T09:16:23.538Z,5.72
2023-04-14T09:21:50.261Z,6.45
2023-04-14T09:26:52.058Z,5.15
2023-04-14T09:31:55.045Z,6.03
2023-04-14T09:37:03.539Z,5.85
2023-04-14T09:42:07.719Z,5.00
2023-04-14T09:47:10.570Z,4.20
2023-04-14T09:52:13.357Z,5.38
2023-04-14T09:57:27.327Z,5.25
2023-04-14T10:02:30.779Z,5.38
2023-04-14T10:07:34.445Z,5.90
2023-04-14T10:12:38.649Z,5.30
2023-04-14T10:17:41.629Z,6.43
2023-04-14T10:22:44.858Z,5.55
2023-04-14T10:27:50.512Z,5.35
2023-04-14T10:32:53.592Z,6.10
2023-04-14T10:37:56.570Z,5.75
2023-04-14T10:43:00.717Z,5.07
2023-04-14T10:48:03.947Z,5.63
2023-04-14T10:53:09.345Z,5.07
2023-04-14T10:58:20.085Z,5.10
2023-04-14T11:03:23.113Z,5.15
2023-04-14T11:08:27.670Z,4.65
2023-04-14T11:13:32.637Z,4.22
2023-04-14T11:18:38.768Z,4.20
2023-04-14T11:23:42.492Z,3.75
2023-04-14T11:28:46.765Z,3.78
2023-04-14T11:33:49.709Z,3.55
2023-04-14T11:38:52.592Z,3.78
2023-04-14T11:43:56.923Z,3.65
2023-04-14T11:48:59.907Z,3.63
2023-04-14T11:54:03.337Z,3.38
2023-04-14T11:59:07.715Z,3.83
2023-04-14T12:04:12.291Z,3.78
2023-04-14T12:09:15.601Z,4.47
2023-04-14T12:14:20.153Z,3.70
2023-04-14T12:19:23.003Z,3.60
2023-04-14T12:24:25.887Z,2.97
2023-04-14T12:29:30.157Z,3.45
2023-04-14T12:34:32.952Z,3.28
2023-04-14T12:39:50.746Z,3.35
2023-04-14T12:44:59.361Z,3.40
2023-04-14T12:50:04.426Z,2.78
2023-04-14T12:55:08.816Z,3.40
2023-04-14T13:00:14.513Z,3.25
2023-04-14T13:05:17.813Z,3.00
2023-04-14T13:10:21.062Z,2.70
2023-04-14T13:16:12.168Z,2.50
2023-04-14T13:20:53.712Z,2.40
2023-04-14T13:25:56.671Z,2.20
2023-04-14T13:31:01.015Z,2.75
2023-04-14T13:36:04.169Z,2.08
2023-04-14T13:41:07.143Z,2.33
2023-04-14T13:46:11.442Z,1.90
2023-04-14T13:51:14.352Z,2.25
2023-04-14T13:56:17.172Z,1.92
2023-04-14T14:01:21.616Z,2.15
2023-04-14T14:06:24.517Z,1.85
2023-04-14T14:11:27.388Z,2.40
2023-04-14T14:16:37.076Z,1.90
2023-04-14T14:21:40.306Z,2.05
2023-04-14T14:26:43.106Z,1.83
2023-04-14T14:31:47.375Z,2.00
2023-04-14T14:36:50.423Z,2.35
2023-04-14T14:41:53.401Z,2.40
2023-04-14T14:46:58.652Z,2.05
2023-04-14T14:52:04.568Z,1.50
2023-04-14T14:57:07.533Z,2.45
2023-04-14T15:02:11.744Z,1.73
2023-04-14T15:07:14.582Z,2.10
2023-04-14T15:12:17.509Z,2.08
2023-04-14T15:17:21.743Z,1.77
2023-04-14T15:22:24.585Z,1.95
2023-04-14T15:27:27.437Z,1.98
2023-04-14T15:32:31.742Z,1.80
2023-04-14T15:37:34.710Z,2.30
2023-04-14T15:42:37.842Z,2.20
2023-04-14T15:47:42.037Z,1.90
2023-04-14T15:52:44.939Z,2.33
2023-04-14T15:57:49.184Z,1.85
2023-04-14T16:02:53.636Z,3.78
2023-04-14T16:07:57.043Z,2.28
2023-04-14T16:12:59.936Z,1.88
2023-04-14T16:18:04.362Z,2.17
2023-04-14T16:23:07.261Z,2.55
2023-04-14T16:28:10.121Z,1.92
2023-04-14T16:33:14.559Z,2.03
2023-04-14T16:38:17.362Z,1.67
2023-04-14T16:43:20.321Z,2.15
2023-04-14T16:48:24.522Z,2.35
2023-04-14T16:53:27.545Z,2.45
2023-04-14T16:58:30.375Z,4.68
2023-04-14T17:03:34.958Z,2.67
2023-04-14T17:08:38.167Z,2.10
2023-04-14T17:13:42.503Z,1.65
2023-04-14T17:18:46.787Z,1.70
2023-04-14T17:23:49.781Z,1.88
2023-04-14T17:28:52.718Z,2.25
2023-04-14T17:33:57.977Z,3.70
2023-04-14T17:39:00.979Z,3.42
2023-04-14T17:44:04.356Z,4.05
2023-04-14T17:49:08.738Z,3.78
2023-04-14T17:54:11.744Z,4.35
2023-04-14T17:59:14.649Z,4.47
2023-04-14T18:04:18.865Z,4.72
2023-04-14T18:09:21.813Z,5.38
2023-04-14T18:14:26.427Z,4.40
2023-04-14T18:19:30.621Z,4.30
2023-04-14T18:29:39.350Z,5.22
2023-04-14T18:34:43.546Z,7.13
2023-04-14T18:39:46.407Z,5.60
2023-04-14T18:44:49.211Z,4.97
2023-04-14T18:49:53.418Z,3.88
2023-04-14T18:54:57.223Z,4.25
2023-04-14T19:00:00.169Z,3.65
2023-04-14T19:05:04.759Z,3.63
2023-04-14T19:10:08.985Z,3.83
2023-04-14T19:15:13.320Z,6.38
2023-04-14T19:20:17.538Z,7.90
2023-04-14T19:25:20.422Z,4.70
2023-04-14T19:30:23.477Z,4.22
2023-04-14T19:35:27.762Z,4.22
2023-04-14T19:40:31.872Z,5.55
2023-04-14T19:45:34.833Z,10.88
2023-04-14T19:50:39.649Z,9.07
2023-04-14T19:55:42.519Z,7.38
2023-04-14T20:00:45.931Z,5.85
2023-04-14T20:05:52.932Z,6.13
2023-04-14T20:10:55.887Z,8.25
2023-04-14T20:15:58.931Z,7.43
2023-04-14T20:21:04.610Z,8.43
2023-04-14T20:26:07.430Z,7.72
2023-04-14T20:31:10.472Z,7.00
2023-04-14T20:36:14.732Z,5.95
2023-04-14T20:41:17.547Z,6.28
2023-04-14T20:46:22.051Z,6.40
2023-04-14T20:51:26.288Z,7.25
2023-04-14T20:56:30.687Z,6.97
2023-04-14T21:01:33.531Z,6.50
2023-04-14T21:06:38.052Z,6.07
2023-04-14T21:11:41.478Z,5.60
2023-04-14T21:16:44.298Z,5.72
2023-04-14T21:21:48.590Z,6.10
2023-04-14T21:26:51.565Z,5.15
2023-04-14T21:31:54.706Z,5.65
2023-04-14T21:36:59.054Z,5.68
2023-04-14T21:42:03.567Z,5.95
2023-04-14T21:47:07.935Z,6.07
2023-04-14T21:52:12.200Z,5.72
2023-04-14T21:57:14.962Z,6.45
2023-04-14T22:02:17.957Z,6.00
2023-04-14T22:07:22.175Z,6.35
2023-04-14T22:12:25.345Z,6.10
2023-04-14T22:17:28.268Z,5.55
2023-04-14T22:22:32.925Z,5.90
2023-04-14T22:27:36.105Z,5.93
2023-04-14T22:32:38.931Z,5.80
2023-04-14T22:37:43.222Z,5.75
2023-04-14T22:42:46.139Z,6.30
2023-04-14T22:47:49.039Z,6.75
2023-04-14T22:52:53.349Z,6.00
2023-04-14T22:57:56.575Z,6.75
2023-04-14T23:03:00.564Z,7.25
2023-04-14T23:08:05.351Z,7.53
2023-04-14T23:13:08.172Z,6.97
2023-04-14T23:18:11.042Z,7.63
2023-04-14T23:23:15.164Z,7.03
2023-04-14T23:28:18.010Z,7.10
2023-04-14T23:33:20.860Z,7.20
2023-04-14T23:38:25.067Z,7.20
2023-04-14T23:43:28.520Z,7.18
2023-04-14T23:48:31.430Z,6.80
2023-04-14T23:53:36.109Z,7.30
2023-04-14T23:58:39.005Z,6.53
